createdAt,value
2018-09-13T02:09:26.909Z,6.70
2018-09-13T04:12:45.307Z,8.30
2018-09-13T04:18:00.573Z,7.73
2018-09-13T04:23:30.871Z,7.20
2018-09-13T04:26:30.921Z,7.23
2018-09-13T04:29:03.185Z,7.90
2018-09-13T04:31:34.042Z,8.13
2018-09-13T04:34:03.931Z,7.67
2018-09-13T04:36:34.170Z,8.03
2018-09-13T04:39:04.585Z,7.40
2018-09-13T04:41:37.472Z,8.57
2018-09-13T04:44:08.118Z,9.20
2018-09-13T04:46:39.911Z,9.13
2018-09-13T04:49:10.432Z,9.90
2018-09-13T04:51:41.342Z,8.53
2018-09-13T05:11:42.870Z,8.97
2018-09-13T05:14:13.455Z,8.80
2018-09-13T05:16:44.916Z,9.27
2018-09-13T05:19:18.075Z,10.13
2018-09-13T05:59:46.353Z,10.17
2018-09-13T06:02:16.329Z,9.50
2018-09-13T06:05:36.238Z,9.93
2018-09-13T06:11:06.151Z,9.50
2018-09-13T06:13:36.188Z,9.40
2018-09-13T06:16:06.668Z,8.43
2018-09-13T06:21:34.185Z,8.27
2018-09-13T06:24:04.243Z,8.47
2018-09-13T06:26:35.535Z,8.53
2018-09-13T06:32:07.340Z,8.60
2018-09-13T06:34:37.289Z,8.17
2018-09-13T06:37:08.415Z,8.73
2018-09-13T07:34:48.533Z,11.37
2018-09-13T07:43:28.298Z,9.63
2018-09-13T07:45:58.995Z,10.30
2018-09-13T07:48:35.281Z,10.30
2018-09-13T07:54:04.338Z,10.00
2018-09-13T07:56:34.701Z,10.57
2018-09-13T07:59:05.372Z,10.30
2018-09-13T08:01:38.071Z,10.03
2018-09-13T08:04:10.303Z,11.33
2018-09-13T08:06:40.998Z,10.57
2018-09-13T08:09:14.055Z,11.37
2018-09-13T08:11:47.277Z,11.17
2018-09-13T08:14:21.735Z,10.60
2018-09-13T08:16:53.496Z,10.53
2018-09-13T08:19:26.374Z,11.30
2018-09-13T08:21:59.416Z,11.20
2018-09-13T08:24:30.640Z,9.73
2018-09-13T08:27:00.571Z,9.60
2018-09-13T08:29:31.887Z,9.03
2018-09-13T08:32:02.289Z,10.23
2018-09-13T08:34:39.017Z,9.97
2018-09-13T08:37:09.109Z,9.93
2018-09-13T08:39:39.083Z,8.70
2018-09-13T08:42:11.294Z,8.97
2018-09-13T08:44:42.716Z,8.10
2018-09-13T08:47:13.564Z,8.50
2018-09-13T08:49:43.609Z,7.40
2018-09-13T08:52:14.419Z,8.90
2018-09-13T08:54:47.786Z,8.10
2018-09-13T08:57:21.330Z,7.83
2018-09-13T08:59:52.557Z,8.57
2018-09-13T09:02:22.299Z,7.90
2018-09-13T09:04:55.346Z,7.77
2018-09-13T09:07:26.311Z,7.30
2018-09-13T09:09:56.051Z,8.27
2018-09-13T09:12:26.054Z,8.07
2018-09-13T09:14:58.372Z,8.17
2018-09-13T09:17:28.798Z,7.77
2018-09-13T09:19:59.567Z,7.63
2018-09-13T09:22:30.635Z,6.70
2018-09-13T09:25:13.582Z,7.37
2018-09-13T09:27:43.424Z,7.87
2018-09-13T09:30:15.588Z,7.33
2018-09-13T09:32:48.207Z,7.73
2018-09-13T09:35:18.930Z,7.43
2018-09-13T09:37:58.297Z,6.90
2018-09-13T09:40:29.017Z,8.43
2018-09-13T09:42:59.227Z,8.80
2018-09-13T09:45:30.181Z,7.40
2018-09-13T09:48:00.546Z,7.63
2018-09-13T09:50:32.038Z,7.53
2018-09-13T09:53:02.724Z,9.17
2018-09-13T09:55:34.499Z,7.33
2018-09-13T09:58:04.396Z,8.70
2018-09-13T10:00:39.165Z,8.73
2018-09-13T10:06:10.403Z,8.70
2018-09-13T10:08:41.007Z,8.80
2018-09-13T10:11:12.555Z,9.00
2018-09-13T10:13:42.742Z,8.67
2018-09-13T10:16:20.561Z,10.20
2018-09-13T10:19:22.630Z,9.47
2018-09-13T10:21:58.789Z,9.90
2018-09-13T10:24:35.970Z,9.70
2018-09-13T10:27:10.917Z,10.13
2018-09-13T10:29:52.856Z,9.63
2018-09-13T10:32:27.804Z,11.30
2018-09-13T10:35:05.181Z,10.17
2018-09-13T10:37:41.445Z,11.37
2018-09-13T10:40:17.843Z,10.07
2018-09-13T10:42:53.266Z,10.87
2018-09-13T10:46:31.999Z,11.03
2018-09-13T10:49:07.002Z,10.13
2018-09-13T10:51:42.444Z,9.60
2018-09-13T10:54:18.989Z,9.63
2018-09-13T10:56:57.004Z,9.53
2018-09-13T10:59:26.793Z,9.30
2018-09-13T11:01:57.830Z,9.70
2018-09-13T11:04:29.064Z,8.27
2018-09-13T11:07:01.485Z,8.33
2018-09-13T11:09:31.960Z,8.80
2018-09-13T11:12:10.810Z,8.47
2018-09-13T11:14:56.624Z,7.37
2018-09-13T11:17:27.931Z,7.43
2018-09-13T11:19:59.624Z,6.90
2018-09-13T11:22:30.411Z,7.43
2018-09-13T11:25:02.727Z,7.03
2018-09-13T11:27:32.511Z,5.77
2018-09-13T11:30:02.285Z,6.20
2018-09-13T11:32:32.964Z,5.60
2018-09-13T11:35:02.703Z,5.27
2018-09-13T11:37:33.833Z,5.50
2018-09-13T11:40:05.055Z,5.87
2018-09-13T11:42:34.827Z,5.80
2018-09-13T11:45:06.272Z,6.43
2018-09-13T11:47:37.361Z,5.63
2018-09-13T11:50:08.710Z,5.70
2018-09-13T11:52:38.539Z,5.73
2018-09-13T11:55:09.793Z,4.97
2018-09-13T11:57:40.193Z,4.87
2018-09-13T12:00:10.395Z,4.90
2018-09-13T12:02:55.656Z,5.30
2018-09-13T12:05:26.230Z,5.43
2018-09-13T12:07:55.989Z,4.50
2018-09-13T12:10:29.465Z,4.80
2018-09-13T12:12:59.952Z,4.70
2018-09-13T12:15:30.352Z,4.20
2018-09-13T12:18:01.283Z,4.70
2018-09-13T12:20:31.956Z,3.80
2018-09-13T12:23:04.841Z,3.87
2018-09-13T12:25:34.757Z,4.87
2018-09-13T12:28:05.996Z,5.10
2018-09-13T12:30:44.256Z,4.50
2018-09-13T12:33:15.494Z,4.27
2018-09-13T12:35:45.589Z,4.33
2018-09-13T12:38:17.697Z,4.93
2018-09-13T12:40:47.431Z,4.97
2018-09-13T12:43:17.369Z,5.27
2018-09-13T12:45:47.648Z,6.17
2018-09-13T12:48:18.884Z,5.33
2018-09-13T12:50:49.249Z,6.40
2018-09-13T12:53:21.757Z,5.83
2018-09-13T12:55:54.818Z,5.03
2018-09-13T12:58:27.456Z,6.50
2018-09-13T13:00:59.305Z,6.20
2018-09-13T13:03:32.795Z,5.37
2018-09-13T13:06:04.031Z,5.23
2018-09-13T13:08:36.002Z,4.63
2018-09-13T13:11:06.115Z,4.80
2018-09-13T13:13:38.766Z,4.90
2018-09-13T13:16:10.993Z,5.43
2018-09-13T13:18:43.026Z,4.70
2018-09-13T13:21:13.726Z,4.83
2018-09-13T13:23:45.099Z,4.97
2018-09-13T13:26:16.718Z,4.40
2018-09-13T13:28:48.584Z,4.30
2018-09-13T13:31:18.349Z,4.23
2018-09-13T13:33:47.983Z,3.80
2018-09-13T13:36:18.281Z,4.53
2018-09-13T13:41:55.380Z,4.80
2018-09-13T13:44:49.876Z,4.93
2018-09-13T13:47:21.102Z,4.80
2018-09-13T13:49:57.813Z,4.73
2018-09-13T13:52:32.788Z,4.67
2018-09-13T13:55:03.529Z,4.50
2018-09-13T13:57:35.244Z,4.50
2018-09-13T14:00:15.023Z,4.13
2018-09-13T14:02:47.864Z,3.90
2018-09-13T14:05:33.521Z,4.07
2018-09-13T14:08:06.410Z,3.77
2018-09-13T14:10:38.877Z,4.17
2018-09-13T14:13:09.217Z,4.17
2018-09-13T14:15:39.232Z,3.93
2018-09-13T14:18:09.572Z,4.77
2018-09-13T14:20:41.505Z,4.63
2018-09-13T14:23:18.362Z,4.37
2018-09-13T14:25:48.507Z,3.97
2018-09-13T14:28:18.460Z,4.20
2018-09-13T14:30:48.501Z,4.30
2018-09-13T14:33:22.626Z,4.27
2018-09-13T14:35:53.690Z,4.27
2018-09-13T14:38:24.846Z,4.00
2018-09-13T14:41:00.274Z,4.03
2018-09-13T14:43:30.201Z,3.50
2018-09-13T14:46:00.544Z,3.60
2018-09-13T14:48:35.073Z,5.00
2018-09-13T14:51:06.131Z,4.80
2018-09-13T14:53:37.283Z,4.53
2018-09-13T14:56:10.372Z,4.53
2018-09-13T14:58:42.676Z,5.23
2018-09-13T15:01:16.567Z,4.93
2018-09-13T15:03:54.792Z,6.27
2018-09-13T15:06:25.993Z,5.20
2018-09-13T15:08:57.650Z,5.50
2018-09-13T15:11:33.925Z,5.80
2018-09-13T15:14:20.084Z,5.67
2018-09-13T15:17:02.905Z,5.77
2018-09-13T15:19:40.256Z,5.87
2018-09-13T15:22:16.138Z,7.20
2018-09-13T15:24:58.367Z,7.40
2018-09-13T15:27:38.800Z,6.43
2018-09-13T15:30:24.620Z,5.90
2018-09-13T15:33:08.813Z,6.73
2018-09-13T15:35:42.790Z,5.83
2018-09-13T15:38:34.939Z,6.40
2018-09-13T15:41:06.783Z,6.77
2018-09-13T15:43:37.201Z,6.43
2018-09-13T15:46:23.828Z,6.60
2018-09-13T15:49:15.049Z,6.20
2018-09-13T15:52:11.399Z,6.23
2018-09-13T15:55:08.348Z,6.00
2018-09-13T16:00:54.135Z,5.00
2018-09-13T16:03:24.307Z,4.43
2018-09-13T16:05:54.441Z,4.37
2018-09-13T16:08:34.473Z,4.40
2018-09-13T16:11:05.105Z,4.37
2018-09-13T16:13:35.444Z,4.73
2018-09-13T16:16:19.613Z,4.80
2018-09-13T16:19:10.112Z,5.47
2018-09-13T16:30:56.333Z,6.13
2018-09-13T16:33:35.188Z,6.50
2018-09-13T16:38:56.846Z,8.83
2018-09-13T16:47:32.752Z,4.60
2018-09-13T16:50:04.694Z,4.20
2018-09-13T16:52:35.311Z,4.80
2018-09-13T17:00:57.608Z,4.80
2018-09-13T17:03:28.798Z,4.30
2018-09-13T17:06:03.581Z,4.60
2018-09-13T17:08:35.498Z,4.43
2018-09-13T17:11:14.041Z,5.00
2018-09-13T17:13:46.477Z,4.70
2018-09-13T17:16:23.192Z,5.20
2018-09-13T17:18:55.361Z,5.60
2018-09-13T17:23:59.433Z,6.60
2018-09-13T17:26:34.653Z,6.63
2018-09-13T17:29:12.178Z,6.50
2018-09-13T17:31:43.901Z,7.50
2018-09-13T17:34:14.878Z,7.07
2018-09-13T17:36:47.865Z,5.30
2018-09-13T17:39:20.178Z,5.87
2018-09-13T17:42:13.606Z,5.27
2018-09-13T17:44:45.920Z,5.90
2018-09-13T17:47:18.035Z,4.77
2018-09-13T17:49:48.615Z,5.40
2018-09-13T17:52:19.123Z,5.40
2018-09-13T17:54:53.900Z,4.80
2018-09-13T17:57:31.718Z,5.43
2018-09-13T18:00:06.038Z,7.90
2018-09-13T18:02:48.795Z,6.57
2018-09-13T18:05:23.871Z,6.47
2018-09-13T18:08:02.762Z,5.60
2018-09-13T18:10:34.926Z,4.90
2018-09-13T18:13:06.592Z,5.33
2018-09-13T18:15:54.376Z,5.77
2018-09-13T18:18:31.748Z,5.83
2018-09-13T18:21:11.580Z,5.43
2018-09-13T18:23:42.392Z,4.90
2018-09-13T18:26:26.283Z,5.17
2018-09-13T18:28:57.571Z,5.97
2018-09-13T18:31:33.556Z,5.20
2018-09-13T18:36:53.870Z,5.70
2018-09-13T18:39:31.823Z,5.33
2018-09-13T18:42:04.341Z,5.67
2018-09-13T18:44:38.988Z,5.97
2018-09-13T18:47:12.650Z,5.90
2018-09-13T18:49:44.355Z,6.10
2018-09-13T18:52:18.355Z,5.30
2018-09-13T18:54:56.637Z,5.27
2018-09-13T18:57:30.203Z,5.23
2018-09-13T19:00:04.671Z,5.43
2018-09-13T19:02:43.479Z,6.70
2018-09-13T19:05:14.315Z,5.90
2018-09-13T19:07:45.655Z,6.83
2018-09-13T19:10:21.051Z,6.00
2018-09-13T19:12:54.722Z,6.43
2018-09-13T19:15:31.630Z,5.23
2018-09-13T19:18:14.312Z,5.90
2018-09-13T19:20:55.806Z,7.07
2018-09-13T19:23:31.326Z,5.90
2018-09-13T19:26:08.176Z,6.23
2018-09-13T19:31:34.108Z,6.37
2018-09-13T19:34:16.632Z,6.00
2018-09-13T19:36:56.812Z,6.73
2018-09-13T19:42:41.734Z,6.97
2018-09-13T19:45:25.313Z,6.63
2018-09-13T19:48:08.298Z,6.03
2018-09-13T19:50:41.835Z,6.80
2018-09-13T19:53:12.490Z,6.03
2018-09-13T19:55:45.374Z,5.93
2018-09-13T19:58:20.580Z,6.70
2018-09-13T20:00:54.395Z,7.27
2018-09-13T20:03:37.488Z,6.90
2018-09-13T20:06:12.156Z,7.37
2018-09-13T20:08:43.386Z,7.20
2018-09-13T20:11:18.596Z,8.07
2018-09-13T20:13:48.698Z,8.27
2018-09-13T20:16:20.813Z,7.13
2018-09-13T20:18:53.837Z,8.43
2018-09-13T20:21:29.647Z,7.57
2018-09-13T20:24:02.167Z,7.43
2018-09-13T20:26:37.942Z,8.40
2018-09-13T20:29:11.977Z,8.67
2018-09-13T20:31:43.233Z,8.27
2018-09-13T20:34:15.169Z,8.27
2018-09-13T20:36:45.000Z,8.73
2018-09-13T20:39:15.280Z,8.33
2018-09-13T20:41:45.452Z,8.17
2018-09-13T20:44:17.829Z,9.03
2018-09-13T20:46:56.028Z,8.37
2018-09-13T20:49:30.642Z,9.67
2018-09-13T20:52:06.624Z,9.47
2018-09-13T20:54:41.603Z,9.33
2018-09-13T20:57:14.621Z,9.90
2018-09-13T20:59:49.153Z,9.30
2018-09-13T21:02:21.000Z,9.77
2018-09-13T21:04:57.078Z,10.33
2018-09-13T21:07:28.942Z,9.83
2018-09-13T21:10:02.591Z,9.90
2018-09-13T21:12:33.566Z,9.60
2018-09-13T21:15:06.339Z,10.07
2018-09-13T21:17:36.589Z,9.10
2018-09-13T21:20:11.473Z,9.60
2018-09-13T21:22:42.308Z,9.90
2018-09-13T21:25:12.687Z,10.20
2018-09-13T21:27:44.499Z,9.40
2018-09-13T21:30:14.464Z,9.27
2018-09-13T21:32:45.170Z,9.57
2018-09-13T21:35:14.894Z,9.33
2018-09-13T21:37:46.066Z,9.10
2018-09-13T21:40:16.596Z,9.67
2018-09-13T21:42:47.081Z,10.13
2018-09-13T21:45:17.930Z,9.53
2018-09-13T21:47:49.214Z,11.07
2018-09-13T21:50:21.191Z,11.00
2018-09-13T21:52:57.521Z,10.53
2018-09-13T21:55:31.352Z,11.67
2018-09-13T21:58:01.189Z,10.87
2018-09-13T22:00:32.035Z,11.63
2018-09-13T22:03:01.753Z,10.57
2018-09-13T22:05:31.767Z,12.13
2018-09-13T22:08:01.991Z,10.50
2018-09-13T22:10:31.897Z,9.77
2018-09-13T22:13:01.658Z,10.80
2018-09-13T22:15:32.126Z,13.27
2018-09-13T22:18:02.396Z,12.23
2018-09-13T22:20:32.674Z,11.83
2018-09-13T22:23:02.445Z,14.33
2018-09-13T22:25:32.552Z,14.37
2018-09-13T22:28:02.305Z,13.10
2018-09-13T22:30:32.631Z,14.17
2018-09-13T22:33:07.791Z,14.47
2018-09-13T22:35:38.295Z,14.87
2018-09-13T22:38:08.801Z,15.37
2018-09-13T22:40:42.093Z,14.73
2018-09-13T22:43:17.646Z,15.00
2018-09-13T22:45:47.306Z,14.80
2018-09-13T22:48:18.980Z,12.37
2018-09-13T22:50:49.212Z,13.00
2018-09-13T22:53:21.890Z,14.27
2018-09-13T22:55:52.969Z,13.53
2018-09-13T22:58:27.756Z,15.73
2018-09-13T23:00:58.506Z,16.83
2018-09-13T23:03:28.487Z,19.30
2018-09-13T23:05:58.155Z,19.97
2018-09-13T23:08:29.104Z,22.90
2018-09-13T23:11:01.806Z,20.20
2018-09-13T23:13:33.715Z,21.03
2018-09-13T23:16:03.554Z,20.03
2018-09-13T23:18:33.208Z,21.37
2018-09-13T23:21:02.905Z,21.57
2018-09-13T23:23:36.584Z,20.90
2018-09-13T23:26:07.306Z,22.27
2018-09-13T23:28:37.779Z,20.23
2018-09-13T23:31:07.959Z,19.33
2018-09-13T23:33:38.073Z,20.93
2018-09-13T23:36:07.791Z,20.73
2018-09-13T23:38:37.614Z,18.77
2018-09-13T23:41:07.139Z,15.83
2018-09-13T23:43:37.589Z,18.10
2018-09-13T23:46:07.217Z,16.17
2018-09-13T23:48:37.721Z,16.60
2018-09-13T23:51:07.919Z,17.90
2018-09-13T23:53:37.545Z,17.50
2018-09-13T23:56:07.207Z,20.43
2018-09-13T23:58:38.157Z,22.70
